Flight Track Log - Related Links

Times and Time Zones

All times are in EDT time to prevent confusion due to time zone crossing. See the EJA729 flight status page for this flight to view local times or setup timezone preferences in your user account.

Time Position Orientation Groundspeed Altitude Reporting Facility
EDT Latitude Longitude Course Direction KTS MPH feet Rate Location/Type
Fri 09:35:56 PM 40.5756 -80.2853 81° East 237 273 5,400  Level Cleveland Center
Fri 09:36:56 PM 40.6106 -80.2056 60° Northeast 226 260 8,700 3,650 Climbing Cleveland Center
Fri 09:37:56 PM 40.6228 -80.0906 82° East 251 289 12,700 4,050 Climbing Cleveland Center
Fri 09:38:56 PM 40.6325 -79.9567 84° East 315 362 16,800 4,000 Climbing Cleveland Center
Fri 09:39:56 PM 40.6422 -79.8250 84° East 338 389 20,700 3,000 Climbing Cleveland Center
Fri 09:40:00 PM 40.6492 -79.4675 79° East  Level Estimated
Fri 09:40:56 PM 40.6514 -79.6744 85° East 376 433 22,800  Level Cleveland Center
Fri 09:41:00 PM 40.6750 -79.3396 81° East  Level Estimated
Fri 09:41:56 PM 40.6625 -79.5047 85° East 428 493 23,000  Level Cleveland Center
Fri 09:42:56 PM 40.6750 -79.3156 85° East 481 554 23,000  Level Cleveland Center
Fri 09:43:56 PM 40.6878 -79.1456 84° East 507 583 23,000  Level Cleveland Center
Fri 09:44:56 PM 40.6994 -78.9317 86° East 527 606 23,000  Level Cleveland Center
Fri 09:45:56 PM 40.7089 -78.7369 86° East 532 612 23,000 -122 Level Cleveland Center
Fri 09:48:13 PM 40.7378 -78.3144 85° East 552 635 22,600 -455 Descending New York Center
Fri 09:49:14 PM 40.7700 -78.1317 77° East 534 615 21,500 -1,100 Descending New York Center
Fri 09:50:13 PM 40.8050 -77.9353 77° East 512 589 20,400 -1,109 Descending New York Center
Fri 09:51:13 PM 40.8342 -77.7600 78° East 498 573 19,300 -712 Descending New York Center
Fri 09:52:11 PM 40.8603 -77.5978 78° East 477 549 19,000 -450 Descending New York Center
Fri 09:53:13 PM 40.8844 -77.4300 79° East 463 533 18,400 -1,180 Descending New York Center
Fri 09:54:13 PM 40.9047 -77.2919 79° East 456 525 16,600 -1,636 Descending New York Center
Fri 09:55:14 PM 40.9275 -77.1403 79° East 431 496 15,100 -1,525 Descending New York Center
Fri 09:56:11 PM 40.9478 -76.9964 79° East 417 480 13,600 -1,525 Descending New York Center
Fri 09:57:12 PM 40.9697 -76.8528 79° East 406 467 12,100 -1,463 Descending New York Center
Fri 09:58:14 PM 40.9889 -76.7197 79° East 384 442 10,600 -1,525 Descending New York Center
Fri 09:59:14 PM 41.0053 -76.6031 79° East 339 390 9,000 -814 Descending New York Center
Fri 10:00:12 PM 41.0208 -76.4942 79° East 306 352 9,000  Level New York Center
Fri 10:01:13 PM 41.0394 -76.3692 79° East 306 352 9,000  Level New York Center
Fri 10:02:14 PM 41.0550 -76.2578 79° East 311 358 9,000 -807 Level New York Center
Fri 10:03:12 PM 41.0706 -76.1489 79° East 311 358 7,400 -1,815 Descending New York Center
Fri 10:04:13 PM 41.0853 -76.0536 78° East 306 352 5,400 -1,623 Descending New York Center
Fri 10:05:14 PM 41.1078 -75.9647 71° East 272 313 4,100 -694 Descending New York Center
Fri 10:06:14 PM 41.1506 -75.8933 51° Northeast 225 259 4,000 -51 Descending New York Center
Fri 10:07:12 PM 41.1983 -75.8503 34° Northeast 207 238 4,000 -407 Level New York Center
Fri 10:08:12 PM 41.2372 -75.8144 35° Northeast 183 211 3,200 -843 Descending New York Center
Fri 10:09:13 PM 41.2719 -75.7811 36° Northeast 160 184 2,300 -836 Descending New York Center
Fri 10:10:14 PM 41.3086 -75.7508 32° Northeast 154 177 1,500 -559 Descending New York Center
Fri 10:11:11 PM 41.3392 -75.7228 35° Northeast 154 177 1,200 3,814 Descending New York Center
Fri 10:12:12 PM 41.3717 -75.6892 38° Northeast 154 177 9,000 7,672 Climbing New York Center

Login

Don't have an account? Register now (free) for customized features, flight alerts, and more!